sensor_id;sensor_type;location;lat;lon;timestamp;P1;durP1;ratioP1;P2;durP2;ratioP2
8333;SDS011;4204;43.004;23.052;2023-07-24T00:01:11;6.53;;;4.90;;
8333;SDS011;4204;43.004;23.052;2023-07-24T00:03:39;8.90;;;5.23;;
8333;SDS011;4204;43.004;23.052;2023-07-24T00:06:07;7.77;;;4.87;;
8333;SDS011;4204;43.004;23.052;2023-07-24T00:08:35;6.23;;;4.80;;
8333;SDS011;4204;43.004;23.052;2023-07-24T00:11:02;6.60;;;4.40;;
8333;SDS011;4204;43.004;23.052;2023-07-24T00:13:31;8.43;;;5.50;;
8333;SDS011;4204;43.004;23.052;2023-07-24T00:16:00;7.77;;;5.40;;
8333;SDS011;4204;43.004;23.052;2023-07-24T00:18:32;6.97;;;4.93;;
8333;SDS011;4204;43.004;23.052;2023-07-24T00:21:00;7.97;;;4.83;;
8333;SDS011;4204;43.004;23.052;2023-07-24T00:23:28;6.40;;;5.20;;
8333;SDS011;4204;43.004;23.052;2023-07-24T00:25:56;6.30;;;5.00;;
8333;SDS011;4204;43.004;23.052;2023-07-24T00:28:23;6.83;;;4.90;;
8333;SDS011;4204;43.004;23.052;2023-07-24T00:30:51;6.57;;;4.77;;
8333;SDS011;4204;43.004;23.052;2023-07-24T00:33:20;7.27;;;4.87;;
8333;SDS011;4204;43.004;23.052;2023-07-24T00:35:48;7.43;;;4.97;;
8333;SDS011;4204;43.004;23.052;2023-07-24T00:38:16;6.77;;;5.00;;
8333;SDS011;4204;43.004;23.052;2023-07-24T00:40:43;7.03;;;5.43;;
8333;SDS011;4204;43.004;23.052;2023-07-24T00:43:11;7.90;;;5.00;;
8333;SDS011;4204;43.004;23.052;2023-07-24T00:45:39;7.67;;;5.10;;
8333;SDS011;4204;43.004;23.052;2023-07-24T00:48:07;7.13;;;5.50;;
8333;SDS011;4204;43.004;23.052;2023-07-24T00:50:40;8.10;;;5.03;;
8333;SDS011;4204;43.004;23.052;2023-07-24T00:53:09;7.10;;;5.30;;
8333;SDS011;4204;43.004;23.052;2023-07-24T00:55:39;6.67;;;5.17;;
8333;SDS011;4204;43.004;23.052;2023-07-24T00:58:08;7.50;;;5.23;;
8333;SDS011;4204;43.004;23.052;2023-07-24T01:00:38;6.73;;;5.23;;
8333;SDS011;4204;43.004;23.052;2023-07-24T01:03:06;6.73;;;4.97;;
8333;SDS011;4204;43.004;23.052;2023-07-24T01:05:34;6.23;;;4.77;;
8333;SDS011;4204;43.004;23.052;2023-07-24T01:08:03;6.97;;;5.13;;
8333;SDS011;4204;43.004;23.052;2023-07-24T01:10:31;7.90;;;4.97;;
8333;SDS011;4204;43.004;23.052;2023-07-24T01:12:59;6.77;;;5.30;;
8333;SDS011;4204;43.004;23.052;2023-07-24T01:15:32;7.37;;;5.50;;
8333;SDS011;4204;43.004;23.052;2023-07-24T01:18:03;6.67;;;5.47;;
8333;SDS011;4204;43.004;23.052;2023-07-24T01:20:35;8.90;;;5.67;;
8333;SDS011;4204;43.004;23.052;2023-07-24T01:23:14;7.03;;;5.50;;
8333;SDS011;4204;43.004;23.052;2023-07-24T01:25:59;7.03;;;5.10;;
8333;SDS011;4204;43.004;23.052;2023-07-24T01:28:28;7.80;;;6.07;;
8333;SDS011;4204;43.004;23.052;2023-07-24T01:30:56;7.40;;;5.60;;
8333;SDS011;4204;43.004;23.052;2023-07-24T01:33:24;6.87;;;5.30;;
8333;SDS011;4204;43.004;23.052;2023-07-24T01:35:53;6.70;;;5.33;;
8333;SDS011;4204;43.004;23.052;2023-07-24T01:38:24;8.23;;;5.57;;
8333;SDS011;4204;43.004;23.052;2023-07-24T01:40:53;6.97;;;5.43;;
8333;SDS011;4204;43.004;23.052;2023-07-24T01:43:25;6.90;;;5.53;;
8333;SDS011;4204;43.004;23.052;2023-07-24T01:45:53;7.33;;;5.53;;
8333;SDS011;4204;43.004;23.052;2023-07-24T01:48:21;8.80;;;5.63;;
8333;SDS011;4204;43.004;23.052;2023-07-24T01:50:49;10.43;;;6.00;;
8333;SDS011;4204;43.004;23.052;2023-07-24T01:53:17;7.37;;;5.87;;
8333;SDS011;4204;43.004;23.052;2023-07-24T01:55:44;10.53;;;5.57;;
8333;SDS011;4204;43.004;23.052;2023-07-24T01:58:12;8.10;;;5.57;;
8333;SDS011;4204;43.004;23.052;2023-07-24T02:00:41;8.53;;;6.30;;
8333;SDS011;4204;43.004;23.052;2023-07-24T02:03:09;8.07;;;6.27;;
8333;SDS011;4204;43.004;23.052;2023-07-24T02:05:37;9.87;;;6.50;;
8333;SDS011;4204;43.004;23.052;2023-07-24T02:08:05;8.40;;;6.17;;
8333;SDS011;4204;43.004;23.052;2023-07-24T02:10:36;7.57;;;6.07;;
8333;SDS011;4204;43.004;23.052;2023-07-24T02:13:04;7.50;;;5.77;;
8333;SDS011;4204;43.004;23.052;2023-07-24T02:15:33;7.10;;;5.83;;
8333;SDS011;4204;43.004;23.052;2023-07-24T02:18:02;8.47;;;5.90;;
8333;SDS011;4204;43.004;23.052;2023-07-24T02:20:30;7.40;;;5.97;;
8333;SDS011;4204;43.004;23.052;2023-07-24T02:22:57;8.10;;;6.23;;
8333;SDS011;4204;43.004;23.052;2023-07-24T02:25:25;7.83;;;5.87;;
8333;SDS011;4204;43.004;23.052;2023-07-24T02:27:53;9.43;;;6.00;;
8333;SDS011;4204;43.004;23.052;2023-07-24T02:30:23;8.00;;;6.43;;
8333;SDS011;4204;43.004;23.052;2023-07-24T02:32:50;9.40;;;6.00;;
8333;SDS011;4204;43.004;23.052;2023-07-24T02:35:19;8.40;;;6.03;;
8333;SDS011;4204;43.004;23.052;2023-07-24T02:37:47;9.17;;;6.37;;
8333;SDS011;4204;43.004;23.052;2023-07-24T02:40:15;9.23;;;5.97;;
8333;SDS011;4204;43.004;23.052;2023-07-24T02:42:42;9.73;;;6.00;;
8333;SDS011;4204;43.004;23.052;2023-07-24T02:45:11;8.97;;;6.40;;
8333;SDS011;4204;43.004;23.052;2023-07-24T02:47:39;8.47;;;6.60;;
8333;SDS011;4204;43.004;23.052;2023-07-24T02:50:08;7.60;;;6.37;;
8333;SDS011;4204;43.004;23.052;2023-07-24T02:52:37;7.30;;;6.10;;
8333;SDS011;4204;43.004;23.052;2023-07-24T02:55:05;9.53;;;6.37;;
8333;SDS011;4204;43.004;23.052;2023-07-24T02:57:34;8.37;;;6.80;;
8333;SDS011;4204;43.004;23.052;2023-07-24T03:00:01;7.10;;;5.93;;
8333;SDS011;4204;43.004;23.052;2023-07-24T03:02:31;9.90;;;6.50;;
8333;SDS011;4204;43.004;23.052;2023-07-24T03:04:59;8.63;;;6.77;;
8333;SDS011;4204;43.004;23.052;2023-07-24T03:07:26;8.47;;;6.07;;
8333;SDS011;4204;43.004;23.052;2023-07-24T03:09:55;6.83;;;5.57;;
8333;SDS011;4204;43.004;23.052;2023-07-24T03:12:23;8.83;;;6.20;;
8333;SDS011;4204;43.004;23.052;2023-07-24T03:14:51;7.50;;;5.73;;
8333;SDS011;4204;43.004;23.052;2023-07-24T03:17:19;8.13;;;6.00;;
8333;SDS011;4204;43.004;23.052;2023-07-24T03:19:47;7.47;;;6.00;;
8333;SDS011;4204;43.004;23.052;2023-07-24T03:22:15;7.37;;;6.07;;
8333;SDS011;4204;43.004;23.052;2023-07-24T03:24:43;7.00;;;5.67;;
8333;SDS011;4204;43.004;23.052;2023-07-24T03:27:12;7.53;;;5.87;;
8333;SDS011;4204;43.004;23.052;2023-07-24T03:29:40;8.70;;;5.73;;
8333;SDS011;4204;43.004;23.052;2023-07-24T03:32:08;7.70;;;5.33;;
8333;SDS011;4204;43.004;23.052;2023-07-24T03:34:35;7.97;;;5.63;;
8333;SDS011;4204;43.004;23.052;2023-07-24T03:37:03;7.83;;;6.03;;
8333;SDS011;4204;43.004;23.052;2023-07-24T03:39:31;8.97;;;5.93;;
8333;SDS011;4204;43.004;23.052;2023-07-24T03:41:59;7.97;;;6.20;;
8333;SDS011;4204;43.004;23.052;2023-07-24T03:44:28;7.40;;;6.10;;
8333;SDS011;4204;43.004;23.052;2023-07-24T03:46:56;8.77;;;6.40;;
8333;SDS011;4204;43.004;23.052;2023-07-24T03:49:24;10.57;;;6.30;;
8333;SDS011;4204;43.004;23.052;2023-07-24T03:51:52;9.17;;;6.83;;
8333;SDS011;4204;43.004;23.052;2023-07-24T03:54:19;11.77;;;6.23;;
8333;SDS011;4204;43.004;23.052;2023-07-24T03:56:47;11.70;;;6.40;;
8333;SDS011;4204;43.004;23.052;2023-07-24T03:59:15;10.17;;;7.13;;
8333;SDS011;4204;43.004;23.052;2023-07-24T04:01:44;9.03;;;6.43;;
8333;SDS011;4204;43.004;23.052;2023-07-24T04:04:11;12.50;;;7.20;;
8333;SDS011;4204;43.004;23.052;2023-07-24T04:06:39;9.50;;;6.83;;
8333;SDS011;4204;43.004;23.052;2023-07-24T04:09:07;10.10;;;6.47;;
8333;SDS011;4204;43.004;23.052;2023-07-24T04:11:36;9.73;;;6.47;;
8333;SDS011;4204;43.004;23.052;2023-07-24T04:14:05;9.23;;;6.87;;
8333;SDS011;4204;43.004;23.052;2023-07-24T04:16:33;12.03;;;6.63;;
8333;SDS011;4204;43.004;23.052;2023-07-24T04:19:02;9.83;;;6.43;;
8333;SDS011;4204;43.004;23.052;2023-07-24T04:21:30;9.23;;;6.30;;
8333;SDS011;4204;43.004;23.052;2023-07-24T04:23:57;9.57;;;6.70;;
8333;SDS011;4204;43.004;23.052;2023-07-24T04:26:25;12.97;;;7.20;;
8333;SDS011;4204;43.004;23.052;2023-07-24T04:28:53;8.00;;;6.40;;
8333;SDS011;4204;43.004;23.052;2023-07-24T04:31:20;9.47;;;6.50;;
8333;SDS011;4204;43.004;23.052;2023-07-24T04:33:48;8.20;;;6.20;;
8333;SDS011;4204;43.004;23.052;2023-07-24T04:36:17;10.87;;;6.10;;
8333;SDS011;4204;43.004;23.052;2023-07-24T04:38:45;9.77;;;6.20;;
8333;SDS011;4204;43.004;23.052;2023-07-24T04:41:13;7.60;;;5.90;;
8333;SDS011;4204;43.004;23.052;2023-07-24T04:43:41;7.07;;;5.93;;
8333;SDS011;4204;43.004;23.052;2023-07-24T04:46:08;8.87;;;6.50;;
8333;SDS011;4204;43.004;23.052;2023-07-24T04:48:36;14.93;;;7.40;;
8333;SDS011;4204;43.004;23.052;2023-07-24T04:51:04;12.33;;;7.27;;
8333;SDS011;4204;43.004;23.052;2023-07-24T04:53:33;9.17;;;5.80;;
8333;SDS011;4204;43.004;23.052;2023-07-24T04:56:01;7.77;;;6.10;;
8333;SDS011;4204;43.004;23.052;2023-07-24T04:58:28;8.33;;;6.43;;
8333;SDS011;4204;43.004;23.052;2023-07-24T05:00:56;8.03;;;5.97;;
8333;SDS011;4204;43.004;23.052;2023-07-24T05:03:24;7.30;;;5.70;;
8333;SDS011;4204;43.004;23.052;2023-07-24T05:05:53;7.77;;;6.43;;
8333;SDS011;4204;43.004;23.052;2023-07-24T05:08:22;6.97;;;6.20;;
8333;SDS011;4204;43.004;23.052;2023-07-24T05:10:54;10.40;;;6.80;;
8333;SDS011;4204;43.004;23.052;2023-07-24T05:13:22;10.77;;;6.93;;
8333;SDS011;4204;43.004;23.052;2023-07-24T05:15:50;10.57;;;6.67;;
8333;SDS011;4204;43.004;23.052;2023-07-24T05:18:17;7.97;;;6.47;;
8333;SDS011;4204;43.004;23.052;2023-07-24T05:20:45;9.17;;;6.77;;
8333;SDS011;4204;43.004;23.052;2023-07-24T05:23:13;11.67;;;6.77;;
8333;SDS011;4204;43.004;23.052;2023-07-24T05:25:41;7.67;;;6.30;;
8333;SDS011;4204;43.004;23.052;2023-07-24T05:28:10;8.93;;;6.00;;
8333;SDS011;4204;43.004;23.052;2023-07-24T05:30:38;7.03;;;5.80;;
8333;SDS011;4204;43.004;23.052;2023-07-24T05:33:06;9.63;;;7.20;;
8333;SDS011;4204;43.004;23.052;2023-07-24T05:35:33;7.87;;;6.47;;
8333;SDS011;4204;43.004;23.052;2023-07-24T05:38:01;12.97;;;7.37;;
8333;SDS011;4204;43.004;23.052;2023-07-24T05:40:29;7.60;;;6.57;;
8333;SDS011;4204;43.004;23.052;2023-07-24T05:42:56;8.27;;;6.90;;
8333;SDS011;4204;43.004;23.052;2023-07-24T05:45:26;7.90;;;6.07;;
8333;SDS011;4204;43.004;23.052;2023-07-24T05:47:54;7.43;;;6.17;;
8333;SDS011;4204;43.004;23.052;2023-07-24T05:50:21;10.50;;;6.30;;
8333;SDS011;4204;43.004;23.052;2023-07-24T05:52:49;9.30;;;6.90;;
8333;SDS011;4204;43.004;23.052;2023-07-24T05:55:17;7.73;;;5.97;;
8333;SDS011;4204;43.004;23.052;2023-07-24T05:57:45;7.77;;;6.03;;
8333;SDS011;4204;43.004;23.052;2023-07-24T06:00:12;9.37;;;6.27;;
8333;SDS011;4204;43.004;23.052;2023-07-24T06:02:44;8.13;;;6.10;;
8333;SDS011;4204;43.004;23.052;2023-07-24T06:05:12;8.60;;;6.47;;
8333;SDS011;4204;43.004;23.052;2023-07-24T06:07:39;8.90;;;6.47;;
8333;SDS011;4204;43.004;23.052;2023-07-24T06:10:07;7.73;;;6.70;;
8333;SDS011;4204;43.004;23.052;2023-07-24T06:12:35;8.40;;;6.67;;
8333;SDS011;4204;43.004;23.052;2023-07-24T06:15:04;8.63;;;6.77;;
8333;SDS011;4204;43.004;23.052;2023-07-24T06:17:32;8.07;;;6.53;;
8333;SDS011;4204;43.004;23.052;2023-07-24T06:20:02;8.27;;;6.63;;
8333;SDS011;4204;43.004;23.052;2023-07-24T06:22:30;10.53;;;6.43;;
8333;SDS011;4204;43.004;23.052;2023-07-24T06:24:57;8.30;;;6.40;;
8333;SDS011;4204;43.004;23.052;2023-07-24T06:27:25;8.93;;;7.70;;
8333;SDS011;4204;43.004;23.052;2023-07-24T06:29:53;7.73;;;6.80;;
8333;SDS011;4204;43.004;23.052;2023-07-24T06:32:20;10.03;;;6.70;;
8333;SDS011;4204;43.004;23.052;2023-07-24T06:34:48;7.63;;;6.43;;
8333;SDS011;4204;43.004;23.052;2023-07-24T06:37:17;8.73;;;7.30;;
8333;SDS011;4204;43.004;23.052;2023-07-24T06:39:45;7.77;;;6.90;;
8333;SDS011;4204;43.004;23.052;2023-07-24T06:42:13;8.90;;;7.13;;
8333;SDS011;4204;43.004;23.052;2023-07-24T06:44:40;9.20;;;7.53;;
8333;SDS011;4204;43.004;23.052;2023-07-24T06:47:08;8.43;;;7.47;;
8333;SDS011;4204;43.004;23.052;2023-07-24T06:49:36;9.00;;;7.53;;
8333;SDS011;4204;43.004;23.052;2023-07-24T06:52:04;8.10;;;6.63;;
8333;SDS011;4204;43.004;23.052;2023-07-24T06:54:33;8.67;;;6.83;;
8333;SDS011;4204;43.004;23.052;2023-07-24T06:57:01;7.53;;;6.77;;
8333;SDS011;4204;43.004;23.052;2023-07-24T06:59:29;8.77;;;7.10;;
8333;SDS011;4204;43.004;23.052;2023-07-24T07:01:57;8.20;;;6.60;;
8333;SDS011;4204;43.004;23.052;2023-07-24T07:04:26;7.90;;;6.60;;
8333;SDS011;4204;43.004;23.052;2023-07-24T07:06:54;9.03;;;6.90;;
8333;SDS011;4204;43.004;23.052;2023-07-24T07:09:22;7.80;;;7.00;;
8333;SDS011;4204;43.004;23.052;2023-07-24T07:11:51;7.90;;;6.77;;
8333;SDS011;4204;43.004;23.052;2023-07-24T07:14:18;8.80;;;7.20;;
8333;SDS011;4204;43.004;23.052;2023-07-24T07:16:46;10.93;;;7.23;;
8333;SDS011;4204;43.004;23.052;2023-07-24T07:19:14;8.20;;;6.97;;
8333;SDS011;4204;43.004;23.052;2023-07-24T07:21:42;8.23;;;7.27;;
8333;SDS011;4204;43.004;23.052;2023-07-24T07:24:10;10.17;;;7.40;;
8333;SDS011;4204;43.004;23.052;2023-07-24T07:26:37;9.63;;;7.60;;
8333;SDS011;4204;43.004;23.052;2023-07-24T07:29:06;7.97;;;6.87;;
8333;SDS011;4204;43.004;23.052;2023-07-24T07:31:34;8.50;;;7.40;;
8333;SDS011;4204;43.004;23.052;2023-07-24T07:34:02;8.57;;;7.20;;
8333;SDS011;4204;43.004;23.052;2023-07-24T07:36:30;9.00;;;7.73;;
8333;SDS011;4204;43.004;23.052;2023-07-24T07:38:58;9.20;;;7.83;;
8333;SDS011;4204;43.004;23.052;2023-07-24T07:41:25;9.17;;;7.57;;
8333;SDS011;4204;43.004;23.052;2023-07-24T07:43:54;8.60;;;7.70;;
8333;SDS011;4204;43.004;23.052;2023-07-24T07:46:23;9.30;;;7.60;;
8333;SDS011;4204;43.004;23.052;2023-07-24T07:48:51;8.87;;;7.30;;
8333;SDS011;4204;43.004;23.052;2023-07-24T07:51:19;10.60;;;7.50;;
8333;SDS011;4204;43.004;23.052;2023-07-24T07:53:47;8.37;;;7.13;;
8333;SDS011;4204;43.004;23.052;2023-07-24T07:56:15;9.47;;;7.40;;
8333;SDS011;4204;43.004;23.052;2023-07-24T07:58:43;9.40;;;6.97;;
8333;SDS011;4204;43.004;23.052;2023-07-24T08:01:10;8.37;;;6.87;;
8333;SDS011;4204;43.004;23.052;2023-07-24T08:03:39;8.90;;;7.43;;
8333;SDS011;4204;43.004;23.052;2023-07-24T08:06:07;7.43;;;6.50;;
8333;SDS011;4204;43.004;23.052;2023-07-24T08:08:35;8.97;;;7.47;;
8333;SDS011;4204;43.004;23.052;2023-07-24T08:11:03;8.27;;;7.23;;
8333;SDS011;4204;43.004;23.052;2023-07-24T08:13:32;8.30;;;6.20;;
8333;SDS011;4204;43.004;23.052;2023-07-24T08:16:00;8.47;;;6.70;;
8333;SDS011;4204;43.004;23.052;2023-07-24T08:18:29;7.57;;;6.67;;
8333;SDS011;4204;43.004;23.052;2023-07-24T08:20:58;8.37;;;7.13;;
8333;SDS011;4204;43.004;23.052;2023-07-24T08:23:26;8.03;;;6.70;;
8333;SDS011;4204;43.004;23.052;2023-07-24T08:25:54;7.40;;;6.60;;
8333;SDS011;4204;43.004;23.052;2023-07-24T08:28:22;8.90;;;7.70;;
8333;SDS011;4204;43.004;23.052;2023-07-24T08:30:56;8.20;;;6.93;;
8333;SDS011;4204;43.004;23.052;2023-07-24T08:33:24;8.07;;;7.17;;
8333;SDS011;4204;43.004;23.052;2023-07-24T08:36:00;9.40;;;7.43;;
8333;SDS011;4204;43.004;23.052;2023-07-24T08:38:29;8.00;;;6.77;;
8333;SDS011;4204;43.004;23.052;2023-07-24T08:41:00;9.17;;;7.57;;
8333;SDS011;4204;43.004;23.052;2023-07-24T08:43:29;8.43;;;7.37;;
8333;SDS011;4204;43.004;23.052;2023-07-24T08:45:58;9.90;;;6.80;;
8333;SDS011;4204;43.004;23.052;2023-07-24T08:48:28;10.17;;;7.63;;
8333;SDS011;4204;43.004;23.052;2023-07-24T08:51:00;9.90;;;7.20;;
8333;SDS011;4204;43.004;23.052;2023-07-24T08:53:30;10.57;;;8.80;;
8333;SDS011;4204;43.004;23.052;2023-07-24T08:56:02;12.37;;;9.23;;
8333;SDS011;4204;43.004;23.052;2023-07-24T08:58:30;12.40;;;8.70;;
8333;SDS011;4204;43.004;23.052;2023-07-24T09:00:58;10.93;;;7.77;;
8333;SDS011;4204;43.004;23.052;2023-07-24T09:03:26;10.27;;;8.20;;
8333;SDS011;4204;43.004;23.052;2023-07-24T09:05:55;10.97;;;8.13;;
8333;SDS011;4204;43.004;23.052;2023-07-24T09:08:31;10.43;;;8.33;;
8333;SDS011;4204;43.004;23.052;2023-07-24T09:11:00;10.50;;;7.97;;
8333;SDS011;4204;43.004;23.052;2023-07-24T09:13:30;10.37;;;8.73;;
8333;SDS011;4204;43.004;23.052;2023-07-24T09:15:58;11.67;;;8.33;;
8333;SDS011;4204;43.004;23.052;2023-07-24T09:18:26;10.07;;;7.63;;
8333;SDS011;4204;43.004;23.052;2023-07-24T09:20:54;11.07;;;8.33;;
8333;SDS011;4204;43.004;23.052;2023-07-24T09:23:32;9.33;;;7.97;;
8333;SDS011;4204;43.004;23.052;2023-07-24T09:26:04;13.47;;;8.53;;
8333;SDS011;4204;43.004;23.052;2023-07-24T09:28:33;10.03;;;7.93;;
8333;SDS011;4204;43.004;23.052;2023-07-24T09:31:01;11.27;;;8.77;;
8333;SDS011;4204;43.004;23.052;2023-07-24T09:33:36;11.90;;;8.93;;
8333;SDS011;4204;43.004;23.052;2023-07-24T09:36:06;10.13;;;8.67;;
8333;SDS011;4204;43.004;23.052;2023-07-24T09:38:37;12.30;;;8.97;;
8333;SDS011;4204;43.004;23.052;2023-07-24T09:41:06;11.07;;;8.40;;
8333;SDS011;4204;43.004;23.052;2023-07-24T09:43:36;11.57;;;9.13;;
8333;SDS011;4204;43.004;23.052;2023-07-24T09:46:05;11.10;;;8.77;;
8333;SDS011;4204;43.004;23.052;2023-07-24T09:48:34;13.03;;;8.97;;
8333;SDS011;4204;43.004;23.052;2023-07-24T09:51:04;9.63;;;8.57;;
8333;SDS011;4204;43.004;23.052;2023-07-24T09:53:33;11.10;;;8.80;;
8333;SDS011;4204;43.004;23.052;2023-07-24T09:56:09;14.30;;;8.47;;
8333;SDS011;4204;43.004;23.052;2023-07-24T09:58:38;15.13;;;9.27;;
8333;SDS011;4204;43.004;23.052;2023-07-24T10:01:08;13.17;;;9.10;;
8333;SDS011;4204;43.004;23.052;2023-07-24T10:03:38;24.87;;;12.13;;
8333;SDS011;4204;43.004;23.052;2023-07-24T10:06:08;12.40;;;8.60;;
8333;SDS011;4204;43.004;23.052;2023-07-24T10:08:38;12.27;;;9.10;;
8333;SDS011;4204;43.004;23.052;2023-07-24T10:11:08;15.47;;;9.40;;
8333;SDS011;4204;43.004;23.052;2023-07-24T10:13:38;14.03;;;9.77;;
8333;SDS011;4204;43.004;23.052;2023-07-24T10:16:07;14.13;;;9.13;;
8333;SDS011;4204;43.004;23.052;2023-07-24T10:18:42;15.73;;;10.43;;
8333;SDS011;4204;43.004;23.052;2023-07-24T10:21:12;14.23;;;8.93;;
8333;SDS011;4204;43.004;23.052;2023-07-24T10:23:41;14.57;;;9.13;;
8333;SDS011;4204;43.004;23.052;2023-07-24T10:26:13;11.13;;;8.37;;
8333;SDS011;4204;43.004;23.052;2023-07-24T10:28:42;13.57;;;7.80;;
8333;SDS011;4204;43.004;23.052;2023-07-24T10:31:19;16.10;;;8.23;;
8333;SDS011;4204;43.004;23.052;2023-07-24T10:33:47;9.80;;;7.87;;
8333;SDS011;4204;43.004;23.052;2023-07-24T10:36:16;12.23;;;7.97;;
8333;SDS011;4204;43.004;23.052;2023-07-24T10:38:45;13.40;;;8.17;;
8333;SDS011;4204;43.004;23.052;2023-07-24T10:41:15;13.33;;;8.70;;
8333;SDS011;4204;43.004;23.052;2023-07-24T10:43:44;12.57;;;8.50;;
8333;SDS011;4204;43.004;23.052;2023-07-24T10:46:13;13.40;;;8.03;;
8333;SDS011;4204;43.004;23.052;2023-07-24T10:48:42;13.27;;;8.33;;
8333;SDS011;4204;43.004;23.052;2023-07-24T10:51:11;11.57;;;8.20;;
8333;SDS011;4204;43.004;23.052;2023-07-24T10:53:41;9.87;;;7.90;;
8333;SDS011;4204;43.004;23.052;2023-07-24T10:56:12;13.23;;;8.13;;
8333;SDS011;4204;43.004;23.052;2023-07-24T10:58:41;10.70;;;8.37;;
8333;SDS011;4204;43.004;23.052;2023-07-24T11:01:09;12.60;;;8.60;;
8333;SDS011;4204;43.004;23.052;2023-07-24T11:03:37;12.97;;;8.67;;
8333;SDS011;4204;43.004;23.052;2023-07-24T11:06:12;12.20;;;7.50;;
8333;SDS011;4204;43.004;23.052;2023-07-24T11:08:50;14.00;;;8.33;;
8333;SDS011;4204;43.004;23.052;2023-07-24T11:11:19;10.87;;;8.00;;
8333;SDS011;4204;43.004;23.052;2023-07-24T11:13:48;10.10;;;8.40;;
8333;SDS011;4204;43.004;23.052;2023-07-24T11:16:16;10.93;;;7.90;;
8333;SDS011;4204;43.004;23.052;2023-07-24T11:18:44;9.50;;;7.97;;
8333;SDS011;4204;43.004;23.052;2023-07-24T11:21:14;15.10;;;8.40;;
8333;SDS011;4204;43.004;23.052;2023-07-24T11:23:46;11.73;;;8.50;;
8333;SDS011;4204;43.004;23.052;2023-07-24T11:26:17;10.50;;;8.03;;
8333;SDS011;4204;43.004;23.052;2023-07-24T11:28:48;10.93;;;7.37;;
8333;SDS011;4204;43.004;23.052;2023-07-24T11:31:16;12.23;;;7.50;;
8333;SDS011;4204;43.004;23.052;2023-07-24T11:33:45;10.70;;;7.77;;
8333;SDS011;4204;43.004;23.052;2023-07-24T11:36:14;12.50;;;7.70;;
8333;SDS011;4204;43.004;23.052;2023-07-24T11:38:44;9.77;;;7.37;;
8333;SDS011;4204;43.004;23.052;2023-07-24T11:41:12;20.93;;;16.67;;
8333;SDS011;4204;43.004;23.052;2023-07-24T11:43:44;9.97;;;8.13;;
8333;SDS011;4204;43.004;23.052;2023-07-24T11:46:23;13.20;;;7.37;;
8333;SDS011;4204;43.004;23.052;2023-07-24T11:48:52;11.97;;;8.00;;
8333;SDS011;4204;43.004;23.052;2023-07-24T11:51:22;11.23;;;7.03;;
8333;SDS011;4204;43.004;23.052;2023-07-24T11:53:51;10.40;;;7.13;;
8333;SDS011;4204;43.004;23.052;2023-07-24T11:56:19;11.27;;;7.77;;
8333;SDS011;4204;43.004;23.052;2023-07-24T11:58:48;13.87;;;7.87;;
8333;SDS011;4204;43.004;23.052;2023-07-24T12:01:15;10.37;;;8.00;;
8333;SDS011;4204;43.004;23.052;2023-07-24T12:03:44;10.57;;;7.70;;
8333;SDS011;4204;43.004;23.052;2023-07-24T12:06:14;14.00;;;7.53;;
8333;SDS011;4204;43.004;23.052;2023-07-24T12:08:43;9.50;;;7.73;;
8333;SDS011;4204;43.004;23.052;2023-07-24T12:11:18;11.07;;;7.67;;
8333;SDS011;4204;43.004;23.052;2023-07-24T12:13:45;11.70;;;7.57;;
8333;SDS011;4204;43.004;23.052;2023-07-24T12:16:13;11.03;;;7.57;;
8333;SDS011;4204;43.004;23.052;2023-07-24T12:18:41;10.50;;;7.53;;
8333;SDS011;4204;43.004;23.052;2023-07-24T12:21:11;12.77;;;7.57;;
8333;SDS011;4204;43.004;23.052;2023-07-24T12:23:38;9.43;;;7.63;;
8333;SDS011;4204;43.004;23.052;2023-07-24T12:26:06;12.70;;;7.50;;
8333;SDS011;4204;43.004;23.052;2023-07-24T12:28:34;11.10;;;8.00;;
8333;SDS011;4204;43.004;23.052;2023-07-24T12:31:02;10.30;;;7.90;;
8333;SDS011;4204;43.004;23.052;2023-07-24T12:33:30;10.27;;;8.00;;
8333;SDS011;4204;43.004;23.052;2023-07-24T12:35:58;11.53;;;7.87;;
8333;SDS011;4204;43.004;23.052;2023-07-24T12:38:27;12.33;;;7.70;;
8333;SDS011;4204;43.004;23.052;2023-07-24T12:40:55;12.00;;;8.23;;
8333;SDS011;4204;43.004;23.052;2023-07-24T12:43:23;9.83;;;8.10;;
8333;SDS011;4204;43.004;23.052;2023-07-24T12:45:51;10.80;;;8.17;;
8333;SDS011;4204;43.004;23.052;2023-07-24T12:48:18;12.30;;;8.40;;
8333;SDS011;4204;43.004;23.052;2023-07-24T12:50:47;11.43;;;8.30;;
8333;SDS011;4204;43.004;23.052;2023-07-24T12:53:15;13.57;;;8.80;;
8333;SDS011;4204;43.004;23.052;2023-07-24T12:55:44;12.60;;;8.80;;
8333;SDS011;4204;43.004;23.052;2023-07-24T12:58:11;11.17;;;8.77;;
8333;SDS011;4204;43.004;23.052;2023-07-24T13:00:39;10.13;;;8.63;;
8333;SDS011;4204;43.004;23.052;2023-07-24T13:03:07;14.33;;;8.50;;
8333;SDS011;4204;43.004;23.052;2023-07-24T13:05:35;10.87;;;8.57;;
8333;SDS011;4204;43.004;23.052;2023-07-24T13:08:02;13.57;;;9.03;;
8333;SDS011;4204;43.004;23.052;2023-07-24T13:10:31;17.10;;;9.60;;
8333;SDS011;4204;43.004;23.052;2023-07-24T13:13:00;13.20;;;8.27;;
8333;SDS011;4204;43.004;23.052;2023-07-24T13:15:28;12.30;;;8.93;;
8333;SDS011;4204;43.004;23.052;2023-07-24T13:17:58;14.73;;;9.60;;
8333;SDS011;4204;43.004;23.052;2023-07-24T13:20:25;11.67;;;9.87;;
8333;SDS011;4204;43.004;23.052;2023-07-24T13:22:53;11.57;;;9.13;;
8333;SDS011;4204;43.004;23.052;2023-07-24T13:25:21;12.03;;;9.13;;
8333;SDS011;4204;43.004;23.052;2023-07-24T13:27:49;12.93;;;9.07;;
8333;SDS011;4204;43.004;23.052;2023-07-24T13:30:20;10.93;;;8.27;;
8333;SDS011;4204;43.004;23.052;2023-07-24T13:32:48;12.98;;;8.50;;
8333;SDS011;4204;43.004;23.052;2023-07-24T13:35:16;11.30;;;9.15;;
8333;SDS011;4204;43.004;23.052;2023-07-24T13:37:44;11.13;;;8.53;;
8333;SDS011;4204;43.004;23.052;2023-07-24T13:40:12;10.37;;;8.67;;
8333;SDS011;4204;43.004;23.052;2023-07-24T13:42:40;12.47;;;8.50;;
8333;SDS011;4204;43.004;23.052;2023-07-24T13:45:08;11.20;;;8.67;;
8333;SDS011;4204;43.004;23.052;2023-07-24T13:47:37;12.63;;;9.10;;
8333;SDS011;4204;43.004;23.052;2023-07-24T13:50:05;12.07;;;8.40;;
8333;SDS011;4204;43.004;23.052;2023-07-24T13:52:33;13.33;;;8.77;;
8333;SDS011;4204;43.004;23.052;2023-07-24T13:55:01;12.30;;;8.10;;
8333;SDS011;4204;43.004;23.052;2023-07-24T13:57:29;10.87;;;8.50;;
8333;SDS011;4204;43.004;23.052;2023-07-24T13:59:57;11.23;;;9.00;;
8333;SDS011;4204;43.004;23.052;2023-07-24T14:02:25;10.73;;;8.57;;
8333;SDS011;4204;43.004;23.052;2023-07-24T14:04:54;10.73;;;7.70;;
8333;SDS011;4204;43.004;23.052;2023-07-24T14:07:22;13.37;;;8.70;;
8333;SDS011;4204;43.004;23.052;2023-07-24T14:09:49;12.03;;;8.83;;
8333;SDS011;4204;43.004;23.052;2023-07-24T14:12:17;13.97;;;8.90;;
8333;SDS011;4204;43.004;23.052;2023-07-24T14:14:45;13.32;;;8.73;;
8333;SDS011;4204;43.004;23.052;2023-07-24T14:17:13;13.73;;;10.05;;
8333;SDS011;4204;43.004;23.052;2023-07-24T14:19:41;15.00;;;10.88;;
8333;SDS011;4204;43.004;23.052;2023-07-24T14:22:10;19.13;;;11.10;;
8333;SDS011;4204;43.004;23.052;2023-07-24T14:24:37;13.53;;;10.57;;
8333;SDS011;4204;43.004;23.052;2023-07-24T14:27:05;16.13;;;11.43;;
8333;SDS011;4204;43.004;23.052;2023-07-24T14:29:33;13.47;;;10.90;;
8333;SDS011;4204;43.004;23.052;2023-07-24T14:32:01;13.98;;;10.70;;
8333;SDS011;4204;43.004;23.052;2023-07-24T14:34:28;13.07;;;10.82;;
8333;SDS011;4204;43.004;23.052;2023-07-24T14:36:56;14.10;;;10.82;;
8333;SDS011;4204;43.004;23.052;2023-07-24T14:39:25;16.73;;;13.23;;
8333;SDS011;4204;43.004;23.052;2023-07-24T14:41:53;15.27;;;12.05;;
8333;SDS011;4204;43.004;23.052;2023-07-24T14:44:21;14.90;;;11.13;;
8333;SDS011;4204;43.004;23.052;2023-07-24T14:46:48;13.03;;;11.20;;
8333;SDS011;4204;43.004;23.052;2023-07-24T14:49:16;14.10;;;11.87;;
8333;SDS011;4204;43.004;23.052;2023-07-24T14:51:44;13.57;;;11.57;;
8333;SDS011;4204;43.004;23.052;2023-07-24T14:54:12;15.60;;;12.60;;
8333;SDS011;4204;43.004;23.052;2023-07-24T14:56:41;15.57;;;11.93;;
8333;SDS011;4204;43.004;23.052;2023-07-24T14:59:09;16.27;;;12.75;;
8333;SDS011;4204;43.004;23.052;2023-07-24T15:01:36;19.87;;;12.07;;
8333;SDS011;4204;43.004;23.052;2023-07-24T15:04:04;13.73;;;11.17;;